sensor_id;sensor_type;location;lat;lon;timestamp;P1;durP1;ratioP1;P2;durP2;ratioP2
75589;SDS011;76096;47.236;11.318;2024-03-23T00:52:11;1.13;;;0.45;;
75589;SDS011;76096;47.236;11.318;2024-03-23T00:54:37;3.90;;;0.90;;
75589;SDS011;76096;47.236;11.318;2024-03-23T00:57:02;2.10;;;0.80;;
75589;SDS011;76096;47.236;11.318;2024-03-23T00:59:28;2.17;;;0.73;;
75589;SDS011;76096;47.236;11.318;2024-03-23T01:01:54;3.97;;;1.00;;
75589;SDS011;76096;47.236;11.318;2024-03-23T01:04:20;3.08;;;0.88;;
75589;SDS011;76096;47.236;11.318;2024-03-23T01:06:46;3.28;;;0.85;;
75589;SDS011;76096;47.236;11.318;2024-03-23T01:09:12;2.42;;;0.85;;
75589;SDS011;76096;47.236;11.318;2024-03-23T01:11:39;2.25;;;0.80;;
75589;SDS011;76096;47.236;11.318;2024-03-23T01:14:05;3.42;;;1.13;;
75589;SDS011;76096;47.236;11.318;2024-03-23T01:16:31;3.50;;;1.00;;
75589;SDS011;76096;47.236;11.318;2024-03-23T01:18:57;2.80;;;0.88;;
75589;SDS011;76096;47.236;11.318;2024-03-23T01:21:22;2.60;;;0.90;;
75589;SDS011;76096;47.236;11.318;2024-03-23T01:23:48;2.42;;;0.90;;
75589;SDS011;76096;47.236;11.318;2024-03-23T01:26:13;2.20;;;0.98;;
75589;SDS011;76096;47.236;11.318;2024-03-23T01:28:39;3.95;;;0.98;;
75589;SDS011;76096;47.236;11.318;2024-03-23T01:31:05;3.72;;;0.85;;
75589;SDS011;76096;47.236;11.318;2024-03-23T01:33:31;1.38;;;0.52;;
75589;SDS011;76096;47.236;11.318;2024-03-23T01:35:56;2.65;;;0.80;;
75589;SDS011;76096;47.236;11.318;2024-03-23T01:38:22;0.85;;;0.47;;
75589;SDS011;76096;47.236;11.318;2024-03-23T01:40:47;2.67;;;0.80;;
75589;SDS011;76096;47.236;11.318;2024-03-23T01:43:13;1.75;;;0.60;;
75589;SDS011;76096;47.236;11.318;2024-03-23T01:45:38;3.58;;;0.70;;
75589;SDS011;76096;47.236;11.318;2024-03-23T01:48:04;3.05;;;0.80;;
75589;SDS011;76096;47.236;11.318;2024-03-23T01:50:30;2.33;;;0.98;;
75589;SDS011;76096;47.236;11.318;2024-03-23T01:52:58;2.53;;;1.10;;
75589;SDS011;76096;47.236;11.318;2024-03-23T01:55:25;7.03;;;0.93;;
75589;SDS011;76096;47.236;11.318;2024-03-23T01:57:51;2.38;;;0.70;;
75589;SDS011;76096;47.236;11.318;2024-03-23T02:00:16;2.60;;;0.70;;
75589;SDS011;76096;47.236;11.318;2024-03-23T02:02:45;2.10;;;0.63;;
75589;SDS011;76096;47.236;11.318;2024-03-23T02:05:14;3.05;;;0.90;;
75589;SDS011;76096;47.236;11.318;2024-03-23T02:07:40;1.48;;;0.70;;
75589;SDS011;76096;47.236;11.318;2024-03-23T02:10:07;2.88;;;0.90;;
75589;SDS011;76096;47.236;11.318;2024-03-23T02:12:33;2.38;;;0.80;;
75589;SDS011;76096;47.236;11.318;2024-03-23T02:14:59;1.98;;;0.63;;
75589;SDS011;76096;47.236;11.318;2024-03-23T02:17:25;2.10;;;0.70;;
75589;SDS011;76096;47.236;11.318;2024-03-23T02:19:50;2.10;;;0.63;;
75589;SDS011;76096;47.236;11.318;2024-03-23T02:22:16;2.00;;;0.75;;
75589;SDS011;76096;47.236;11.318;2024-03-23T02:24:41;3.22;;;0.90;;
75589;SDS011;76096;47.236;11.318;2024-03-23T02:27:07;3.80;;;0.82;;
75589;SDS011;76096;47.236;11.318;2024-03-23T02:29:33;3.33;;;1.02;;
75589;SDS011;76096;47.236;11.318;2024-03-23T02:31:58;1.45;;;0.50;;
75589;SDS011;76096;47.236;11.318;2024-03-23T02:34:24;2.90;;;0.98;;
75589;SDS011;76096;47.236;11.318;2024-03-23T02:36:50;2.10;;;0.70;;
75589;SDS011;76096;47.236;11.318;2024-03-23T02:39:15;1.40;;;0.80;;
75589;SDS011;76096;47.236;11.318;2024-03-23T02:41:41;2.90;;;0.63;;
75589;SDS011;76096;47.236;11.318;2024-03-23T02:44:06;1.92;;;0.63;;
75589;SDS011;76096;47.236;11.318;2024-03-23T02:46:32;1.67;;;0.70;;
75589;SDS011;76096;47.236;11.318;2024-03-23T02:48:57;3.08;;;0.90;;
75589;SDS011;76096;47.236;11.318;2024-03-23T02:51:23;2.20;;;0.75;;
75589;SDS011;76096;47.236;11.318;2024-03-23T02:53:48;2.50;;;0.90;;
75589;SDS011;76096;47.236;11.318;2024-03-23T02:56:14;2.47;;;0.70;;
75589;SDS011;76096;47.236;11.318;2024-03-23T02:58:42;2.15;;;0.70;;
75589;SDS011;76096;47.236;11.318;2024-03-23T03:01:08;2.88;;;0.85;;
75589;SDS011;76096;47.236;11.318;2024-03-23T03:03:33;2.13;;;0.70;;
75589;SDS011;76096;47.236;11.318;2024-03-23T03:05:59;3.92;;;1.10;;
75589;SDS011;76096;47.236;11.318;2024-03-23T03:08:24;1.80;;;0.70;;
75589;SDS011;76096;47.236;11.318;2024-03-23T03:10:50;3.03;;;0.82;;
75589;SDS011;76096;47.236;11.318;2024-03-23T03:13:16;3.40;;;0.82;;
75589;SDS011;76096;47.236;11.318;2024-03-23T03:15:43;1.95;;;0.70;;
75589;SDS011;76096;47.236;11.318;2024-03-23T03:20:39;2.65;;;0.88;;
75589;SDS011;76096;47.236;11.318;2024-03-23T03:23:04;1.73;;;0.70;;
75589;SDS011;76096;47.236;11.318;2024-03-23T03:25:30;2.50;;;1.15;;
75589;SDS011;76096;47.236;11.318;2024-03-23T03:27:56;3.30;;;0.82;;
75589;SDS011;76096;47.236;11.318;2024-03-23T03:30:21;3.90;;;0.98;;
75589;SDS011;76096;47.236;11.318;2024-03-23T03:32:47;3.42;;;0.95;;
75589;SDS011;76096;47.236;11.318;2024-03-23T03:35:12;3.05;;;1.00;;
75589;SDS011;76096;47.236;11.318;2024-03-23T03:37:38;3.83;;;0.90;;
75589;SDS011;76096;47.236;11.318;2024-03-23T03:40:03;3.88;;;0.65;;
75589;SDS011;76096;47.236;11.318;2024-03-23T03:42:29;1.52;;;0.68;;
75589;SDS011;76096;47.236;11.318;2024-03-23T03:44:54;2.40;;;0.90;;
75589;SDS011;76096;47.236;11.318;2024-03-23T03:47:20;1.55;;;0.60;;
75589;SDS011;76096;47.236;11.318;2024-03-23T03:49:45;0.75;;;0.45;;
75589;SDS011;76096;47.236;11.318;2024-03-23T03:52:12;1.80;;;0.70;;
75589;SDS011;76096;47.236;11.318;2024-03-23T03:54:38;2.45;;;0.80;;
75589;SDS011;76096;47.236;11.318;2024-03-23T03:57:03;2.90;;;1.00;;
75589;SDS011;76096;47.236;11.318;2024-03-23T03:59:29;1.63;;;0.70;;
75589;SDS011;76096;47.236;11.318;2024-03-23T04:01:54;3.85;;;1.10;;
75589;SDS011;76096;47.236;11.318;2024-03-23T04:04:20;3.22;;;1.17;;
75589;SDS011;76096;47.236;11.318;2024-03-23T04:06:47;2.72;;;0.90;;
75589;SDS011;76096;47.236;11.318;2024-03-23T04:09:12;2.90;;;1.00;;
75589;SDS011;76096;47.236;11.318;2024-03-23T04:11:38;2.63;;;0.90;;
75589;SDS011;76096;47.236;11.318;2024-03-23T04:14:03;2.42;;;1.02;;
75589;SDS011;76096;47.236;11.318;2024-03-23T04:16:29;4.80;;;1.08;;
75589;SDS011;76096;47.236;11.318;2024-03-23T04:18:58;2.50;;;0.90;;
75589;SDS011;76096;47.236;11.318;2024-03-23T04:21:24;3.85;;;0.90;;
75589;SDS011;76096;47.236;11.318;2024-03-23T04:23:49;2.00;;;0.80;;
75589;SDS011;76096;47.236;11.318;2024-03-23T04:26:15;3.63;;;0.98;;
75589;SDS011;76096;47.236;11.318;2024-03-23T04:28:40;2.17;;;0.73;;
75589;SDS011;76096;47.236;11.318;2024-03-23T04:31:06;4.30;;;0.80;;
75589;SDS011;76096;47.236;11.318;2024-03-23T04:33:31;2.92;;;0.93;;
75589;SDS011;76096;47.236;11.318;2024-03-23T04:35:57;4.68;;;1.25;;
75589;SDS011;76096;47.236;11.318;2024-03-23T04:38:22;14.07;;;5.05;;
75589;SDS011;76096;47.236;11.318;2024-03-23T04:40:57;8.25;;;2.40;;
75589;SDS011;76096;47.236;11.318;2024-03-23T04:43:23;36.75;;;12.63;;
75589;SDS011;76096;47.236;11.318;2024-03-23T04:45:49;36.45;;;10.10;;
75589;SDS011;76096;47.236;11.318;2024-03-23T04:48:14;18.77;;;7.00;;
75589;SDS011;76096;47.236;11.318;2024-03-23T04:50:40;7.70;;;2.72;;
75589;SDS011;76096;47.236;11.318;2024-03-23T04:53:06;4.82;;;1.33;;
75589;SDS011;76096;47.236;11.318;2024-03-23T04:55:32;3.80;;;1.02;;
75589;SDS011;76096;47.236;11.318;2024-03-23T04:57:57;1.98;;;0.70;;
75589;SDS011;76096;47.236;11.318;2024-03-23T05:00:23;2.20;;;0.90;;
75589;SDS011;76096;47.236;11.318;2024-03-23T05:02:48;3.03;;;0.90;;
75589;SDS011;76096;47.236;11.318;2024-03-23T05:05:14;3.10;;;1.20;;
75589;SDS011;76096;47.236;11.318;2024-03-23T05:07:40;2.85;;;1.00;;
75589;SDS011;76096;47.236;11.318;2024-03-23T05:10:07;3.05;;;1.10;;
75589;SDS011;76096;47.236;11.318;2024-03-23T05:12:36;3.40;;;1.40;;
75589;SDS011;76096;47.236;11.318;2024-03-23T05:15:03;4.93;;;1.90;;
75589;SDS011;76096;47.236;11.318;2024-03-23T05:17:31;4.68;;;1.60;;
75589;SDS011;76096;47.236;11.318;2024-03-23T05:19:57;5.25;;;1.30;;
75589;SDS011;76096;47.236;11.318;2024-03-23T05:22:23;5.43;;;2.08;;
75589;SDS011;76096;47.236;11.318;2024-03-23T05:24:50;6.55;;;2.00;;
75589;SDS011;76096;47.236;11.318;2024-03-23T05:27:15;6.82;;;3.25;;
75589;SDS011;76096;47.236;11.318;2024-03-23T05:29:41;14.32;;;3.85;;
75589;SDS011;76096;47.236;11.318;2024-03-23T05:32:06;10.07;;;3.17;;
75589;SDS011;76096;47.236;11.318;2024-03-23T05:34:32;13.13;;;3.33;;
75589;SDS011;76096;47.236;11.318;2024-03-23T05:36:58;14.20;;;6.78;;
75589;SDS011;76096;47.236;11.318;2024-03-23T05:39:24;7.82;;;3.67;;
75589;SDS011;76096;47.236;11.318;2024-03-23T05:41:49;5.35;;;1.92;;
75589;SDS011;76096;47.236;11.318;2024-03-23T05:44:15;6.20;;;2.17;;
75589;SDS011;76096;47.236;11.318;2024-03-23T05:46:41;4.32;;;1.60;;
75589;SDS011;76096;47.236;11.318;2024-03-23T05:49:08;4.88;;;1.60;;
75589;SDS011;76096;47.236;11.318;2024-03-23T05:51:34;5.32;;;1.90;;
75589;SDS011;76096;47.236;11.318;2024-03-23T05:53:59;8.88;;;3.30;;
75589;SDS011;76096;47.236;11.318;2024-03-23T05:56:26;3.38;;;1.20;;
75589;SDS011;76096;47.236;11.318;2024-03-23T05:58:51;3.30;;;1.20;;
75589;SDS011;76096;47.236;11.318;2024-03-23T06:01:17;2.80;;;1.10;;
75589;SDS011;76096;47.236;11.318;2024-03-23T06:03:42;4.25;;;1.40;;
75589;SDS011;76096;47.236;11.318;2024-03-23T06:06:09;5.60;;;1.90;;
75589;SDS011;76096;47.236;11.318;2024-03-23T06:08:37;3.70;;;1.13;;
75589;SDS011;76096;47.236;11.318;2024-03-23T06:11:03;4.05;;;1.20;;
75589;SDS011;76096;47.236;11.318;2024-03-23T06:13:31;3.90;;;1.23;;
75589;SDS011;76096;47.236;11.318;2024-03-23T06:15:56;5.72;;;1.85;;
75589;SDS011;76096;47.236;11.318;2024-03-23T06:18:23;4.72;;;1.88;;
75589;SDS011;76096;47.236;11.318;2024-03-23T06:20:49;14.90;;;5.63;;
75589;SDS011;76096;47.236;11.318;2024-03-23T06:23:14;12.05;;;4.75;;
75589;SDS011;76096;47.236;11.318;2024-03-23T06:25:42;5.13;;;1.95;;
75589;SDS011;76096;47.236;11.318;2024-03-23T06:28:08;4.28;;;1.50;;
75589;SDS011;76096;47.236;11.318;2024-03-23T06:30:33;4.93;;;1.60;;
75589;SDS011;76096;47.236;11.318;2024-03-23T06:32:59;3.55;;;1.30;;
75589;SDS011;76096;47.236;11.318;2024-03-23T06:35:24;6.18;;;1.67;;
75589;SDS011;76096;47.236;11.318;2024-03-23T06:37:50;4.88;;;1.50;;
75589;SDS011;76096;47.236;11.318;2024-03-23T06:40:15;3.40;;;1.10;;
75589;SDS011;76096;47.236;11.318;2024-03-23T06:42:41;2.22;;;0.80;;
75589;SDS011;76096;47.236;11.318;2024-03-23T06:45:06;4.57;;;1.25;;
75589;SDS011;76096;47.236;11.318;2024-03-23T06:47:32;7.40;;;1.77;;
75589;SDS011;76096;47.236;11.318;2024-03-23T06:49:59;3.00;;;1.00;;
75589;SDS011;76096;47.236;11.318;2024-03-23T06:52:26;4.45;;;1.08;;
75589;SDS011;76096;47.236;11.318;2024-03-23T06:54:52;2.50;;;0.95;;
75589;SDS011;76096;47.236;11.318;2024-03-23T06:57:18;2.17;;;0.90;;
75589;SDS011;76096;47.236;11.318;2024-03-23T06:59:43;3.17;;;0.80;;
75589;SDS011;76096;47.236;11.318;2024-03-23T07:02:09;2.15;;;0.80;;
75589;SDS011;76096;47.236;11.318;2024-03-23T07:04:35;3.08;;;1.10;;
75589;SDS011;76096;47.236;11.318;2024-03-23T07:07:00;3.80;;;0.98;;
75589;SDS011;76096;47.236;11.318;2024-03-23T07:09:27;2.97;;;1.00;;
75589;SDS011;76096;47.236;11.318;2024-03-23T07:11:56;4.80;;;1.35;;
75589;SDS011;76096;47.236;11.318;2024-03-23T07:14:22;4.70;;;1.73;;
75589;SDS011;76096;47.236;11.318;2024-03-23T07:16:48;5.78;;;1.30;;
75589;SDS011;76096;47.236;11.318;2024-03-23T07:19:14;3.70;;;1.40;;
75589;SDS011;76096;47.236;11.318;2024-03-23T07:21:41;5.75;;;1.67;;
75589;SDS011;76096;47.236;11.318;2024-03-23T07:24:07;3.95;;;1.20;;
75589;SDS011;76096;47.236;11.318;2024-03-23T07:26:33;1.80;;;0.80;;
75589;SDS011;76096;47.236;11.318;2024-03-23T07:28:59;2.83;;;0.90;;
75589;SDS011;76096;47.236;11.318;2024-03-23T07:31:24;3.33;;;1.13;;
75589;SDS011;76096;47.236;11.318;2024-03-23T07:33:50;4.53;;;1.50;;
75589;SDS011;76096;47.236;11.318;2024-03-23T07:36:15;4.25;;;1.48;;
75589;SDS011;76096;47.236;11.318;2024-03-23T07:38:41;3.42;;;1.23;;
75589;SDS011;76096;47.236;11.318;2024-03-23T07:41:08;3.75;;;1.02;;
75589;SDS011;76096;47.236;11.318;2024-03-23T07:43:35;4.70;;;1.20;;
75589;SDS011;76096;47.236;11.318;2024-03-23T07:46:02;5.15;;;2.05;;
75589;SDS011;76096;47.236;11.318;2024-03-23T07:48:29;7.88;;;3.35;;
75589;SDS011;76096;47.236;11.318;2024-03-23T07:53:32;3.90;;;1.40;;
75589;SDS011;76096;47.236;11.318;2024-03-23T07:56:02;4.60;;;1.33;;
75589;SDS011;76096;47.236;11.318;2024-03-23T07:58:37;3.75;;;1.40;;
75589;SDS011;76096;47.236;11.318;2024-03-23T08:01:04;4.18;;;1.33;;
75589;SDS011;76096;47.236;11.318;2024-03-23T08:03:30;3.65;;;1.20;;
75589;SDS011;76096;47.236;11.318;2024-03-23T08:05:55;3.45;;;1.00;;
75589;SDS011;76096;47.236;11.318;2024-03-23T08:08:21;3.33;;;1.20;;
75589;SDS011;76096;47.236;11.318;2024-03-23T08:10:50;4.18;;;1.17;;
75589;SDS011;76096;47.236;11.318;2024-03-23T08:13:16;6.25;;;1.35;;
75589;SDS011;76096;47.236;11.318;2024-03-23T08:15:41;3.47;;;1.08;;
75589;SDS011;76096;47.236;11.318;2024-03-23T08:18:07;3.63;;;1.20;;
75589;SDS011;76096;47.236;11.318;2024-03-23T08:20:32;3.70;;;1.08;;
75589;SDS011;76096;47.236;11.318;2024-03-23T08:22:58;4.40;;;1.30;;
75589;SDS011;76096;47.236;11.318;2024-03-23T08:25:23;3.20;;;1.00;;
75589;SDS011;76096;47.236;11.318;2024-03-23T08:27:49;3.03;;;1.15;;
75589;SDS011;76096;47.236;11.318;2024-03-23T08:30:14;3.92;;;1.30;;
75589;SDS011;76096;47.236;11.318;2024-03-23T08:32:41;3.83;;;1.35;;
75589;SDS011;76096;47.236;11.318;2024-03-23T08:35:12;4.30;;;1.20;;
75589;SDS011;76096;47.236;11.318;2024-03-23T08:37:37;5.00;;;1.50;;
75589;SDS011;76096;47.236;11.318;2024-03-23T08:40:03;4.10;;;1.35;;
75589;SDS011;76096;47.236;11.318;2024-03-23T08:42:29;3.45;;;1.20;;
75589;SDS011;76096;47.236;11.318;2024-03-23T08:44:55;4.00;;;1.50;;
75589;SDS011;76096;47.236;11.318;2024-03-23T08:47:21;5.03;;;2.00;;
75589;SDS011;76096;47.236;11.318;2024-03-23T08:49:46;4.30;;;1.70;;
75589;SDS011;76096;47.236;11.318;2024-03-23T08:52:11;6.82;;;1.80;;
75589;SDS011;76096;47.236;11.318;2024-03-23T08:54:37;5.85;;;1.52;;
75589;SDS011;76096;47.236;11.318;2024-03-23T08:57:02;9.45;;;2.13;;
75589;SDS011;76096;47.236;11.318;2024-03-23T08:59:28;6.05;;;1.65;;
75589;SDS011;76096;47.236;11.318;2024-03-23T09:01:54;7.60;;;3.30;;
75589;SDS011;76096;47.236;11.318;2024-03-23T09:04:19;6.32;;;1.83;;
75589;SDS011;76096;47.236;11.318;2024-03-23T09:06:45;5.00;;;1.65;;
75589;SDS011;76096;47.236;11.318;2024-03-23T09:09:10;4.70;;;1.40;;
75589;SDS011;76096;47.236;11.318;2024-03-23T09:11:36;3.78;;;1.30;;
75589;SDS011;76096;47.236;11.318;2024-03-23T09:14:02;3.60;;;1.30;;
75589;SDS011;76096;47.236;11.318;2024-03-23T09:16:28;4.50;;;1.35;;
75589;SDS011;76096;47.236;11.318;2024-03-23T09:18:53;7.45;;;3.03;;
75589;SDS011;76096;47.236;11.318;2024-03-23T09:21:19;7.53;;;2.65;;
75589;SDS011;76096;47.236;11.318;2024-03-23T09:23:44;5.97;;;1.60;;
75589;SDS011;76096;47.236;11.318;2024-03-23T09:26:10;4.85;;;1.90;;
75589;SDS011;76096;47.236;11.318;2024-03-23T09:28:36;6.05;;;2.53;;
75589;SDS011;76096;47.236;11.318;2024-03-23T09:31:02;5.10;;;2.05;;
75589;SDS011;76096;47.236;11.318;2024-03-23T09:33:31;4.55;;;1.65;;
75589;SDS011;76096;47.236;11.318;2024-03-23T09:35:56;5.53;;;1.83;;
75589;SDS011;76096;47.236;11.318;2024-03-23T09:38:22;5.70;;;2.30;;
75589;SDS011;76096;47.236;11.318;2024-03-23T09:40:49;6.60;;;2.97;;
75589;SDS011;76096;47.236;11.318;2024-03-23T09:43:18;6.75;;;3.10;;
75589;SDS011;76096;47.236;11.318;2024-03-23T09:45:51;6.00;;;2.80;;
75589;SDS011;76096;47.236;11.318;2024-03-23T09:48:17;7.47;;;3.30;;
75589;SDS011;76096;47.236;11.318;2024-03-23T09:50:44;5.03;;;1.80;;
75589;SDS011;76096;47.236;11.318;2024-03-23T09:53:13;5.47;;;1.70;;
75589;SDS011;76096;47.236;11.318;2024-03-23T09:55:40;4.55;;;1.58;;
75589;SDS011;76096;47.236;11.318;2024-03-23T09:58:07;4.05;;;1.33;;
75589;SDS011;76096;47.236;11.318;2024-03-23T10:00:33;4.70;;;1.50;;
75589;SDS011;76096;47.236;11.318;2024-03-23T10:02:59;4.85;;;1.75;;
75589;SDS011;76096;47.236;11.318;2024-03-23T10:05:29;5.53;;;1.60;;
75589;SDS011;76096;47.236;11.318;2024-03-23T10:10:39;3.70;;;1.48;;
75589;SDS011;76096;47.236;11.318;2024-03-23T10:13:04;4.53;;;1.40;;
75589;SDS011;76096;47.236;11.318;2024-03-23T10:15:30;3.92;;;1.33;;
75589;SDS011;76096;47.236;11.318;2024-03-23T10:18:00;5.63;;;1.90;;
75589;SDS011;76096;47.236;11.318;2024-03-23T10:20:43;6.65;;;1.52;;
75589;SDS011;76096;47.236;11.318;2024-03-23T10:23:18;4.35;;;1.42;;
75589;SDS011;76096;47.236;11.318;2024-03-23T10:25:44;4.63;;;1.55;;
75589;SDS011;76096;47.236;11.318;2024-03-23T10:28:10;4.20;;;1.40;;
75589;SDS011;76096;47.236;11.318;2024-03-23T10:30:36;4.32;;;1.58;;
75589;SDS011;76096;47.236;11.318;2024-03-23T10:33:10;6.28;;;1.60;;
75589;SDS011;76096;47.236;11.318;2024-03-23T10:35:36;4.35;;;1.52;;
75589;SDS011;76096;47.236;11.318;2024-03-23T10:38:04;4.28;;;1.40;;
75589;SDS011;76096;47.236;11.318;2024-03-23T10:40:30;4.30;;;1.77;;
75589;SDS011;76096;47.236;11.318;2024-03-23T10:42:57;6.30;;;2.10;;
75589;SDS011;76096;47.236;11.318;2024-03-23T10:45:23;6.95;;;1.67;;
75589;SDS011;76096;47.236;11.318;2024-03-23T10:47:49;4.25;;;1.30;;
75589;SDS011;76096;47.236;11.318;2024-03-23T10:50:15;3.70;;;1.20;;
75589;SDS011;76096;47.236;11.318;2024-03-23T10:52:41;5.07;;;1.50;;
75589;SDS011;76096;47.236;11.318;2024-03-23T10:55:11;3.50;;;1.13;;
75589;SDS011;76096;47.236;11.318;2024-03-23T10:57:39;4.53;;;1.25;;
75589;SDS011;76096;47.236;11.318;2024-03-23T11:00:07;4.88;;;1.40;;
75589;SDS011;76096;47.236;11.318;2024-03-23T11:02:33;3.63;;;1.10;;
75589;SDS011;76096;47.236;11.318;2024-03-23T11:04:59;6.72;;;1.02;;
75589;SDS011;76096;47.236;11.318;2024-03-23T11:09:54;4.88;;;1.58;;
75589;SDS011;76096;47.236;11.318;2024-03-23T11:14:45;5.43;;;1.50;;
75589;SDS011;76096;47.236;11.318;2024-03-23T11:17:11;7.80;;;2.42;;
75589;SDS011;76096;47.236;11.318;2024-03-23T11:19:36;6.10;;;1.30;;
75589;SDS011;76096;47.236;11.318;2024-03-23T11:22:02;5.43;;;0.95;;
75589;SDS011;76096;47.236;11.318;2024-03-23T11:24:29;2.58;;;0.68;;
75589;SDS011;76096;47.236;11.318;2024-03-23T11:26:55;1.73;;;0.50;;
75589;SDS011;76096;47.236;11.318;2024-03-23T11:29:21;2.63;;;0.60;;
75589;SDS011;76096;47.236;11.318;2024-03-23T11:31:50;3.50;;;1.17;;
75589;SDS011;76096;47.236;11.318;2024-03-23T11:34:16;3.28;;;0.88;;
75589;SDS011;76096;47.236;11.318;2024-03-23T11:36:42;7.47;;;0.80;;
75589;SDS011;76096;47.236;11.318;2024-03-23T11:39:12;2.35;;;0.60;;
75589;SDS011;76096;47.236;11.318;2024-03-23T11:42:15;2.28;;;0.70;;
75589;SDS011;76096;47.236;11.318;2024-03-23T11:44:33;2.13;;;0.80;;
75589;SDS011;76096;47.236;11.318;2024-03-23T11:47:08;1.30;;;0.50;;
75589;SDS011;76096;47.236;11.318;2024-03-23T11:49:35;2.05;;;0.80;;
75589;SDS011;76096;47.236;11.318;2024-03-23T11:52:05;1.60;;;0.68;;
75589;SDS011;76096;47.236;11.318;2024-03-23T11:54:32;1.40;;;0.50;;
75589;SDS011;76096;47.236;11.318;2024-03-23T11:56:58;1.85;;;0.70;;
75589;SDS011;76096;47.236;11.318;2024-03-23T11:59:31;1.38;;;0.40;;
75589;SDS011;76096;47.236;11.318;2024-03-23T12:01:57;0.52;;;0.40;;
75589;SDS011;76096;47.236;11.318;2024-03-23T12:04:30;0.55;;;0.30;;
75589;SDS011;76096;47.236;11.318;2024-03-23T12:07:10;0.73;;;0.35;;
75589;SDS011;76096;47.236;11.318;2024-03-23T12:09:39;0.85;;;0.40;;
75589;SDS011;76096;47.236;11.318;2024-03-23T12:12:07;2.08;;;0.80;;
75589;SDS011;76096;47.236;11.318;2024-03-23T12:14:32;3.80;;;0.88;;
75589;SDS011;76096;47.236;11.318;2024-03-23T12:17:07;2.00;;;0.80;;
75589;SDS011;76096;47.236;11.318;2024-03-23T12:19:41;2.63;;;1.00;;
75589;SDS011;76096;47.236;11.318;2024-03-23T12:22:08;3.83;;;1.52;;
75589;SDS011;76096;47.236;11.318;2024-03-23T12:24:34;4.97;;;2.25;;
75589;SDS011;76096;47.236;11.318;2024-03-23T12:27:00;3.92;;;1.70;;
75589;SDS011;76096;47.236;11.318;2024-03-23T12:29:32;6.03;;;2.55;;
75589;SDS011;76096;47.236;11.318;2024-03-23T12:32:01;6.53;;;3.00;;
75589;SDS011;76096;47.236;11.318;2024-03-23T12:34:27;4.43;;;1.70;;
75589;SDS011;76096;47.236;11.318;2024-03-23T12:36:54;4.68;;;1.80;;
75589;SDS011;76096;47.236;11.318;2024-03-23T12:39:19;4.45;;;1.75;;
75589;SDS011;76096;47.236;11.318;2024-03-23T12:41:48;3.88;;;1.55;;
75589;SDS011;76096;47.236;11.318;2024-03-23T12:44:14;3.42;;;1.40;;
75589;SDS011;76096;47.236;11.318;2024-03-23T12:46:40;3.65;;;1.45;;
75589;SDS011;76096;47.236;11.318;2024-03-23T12:49:07;3.53;;;1.50;;
75589;SDS011;76096;47.236;11.318;2024-03-23T12:51:33;3.22;;;1.30;;
75589;SDS011;76096;47.236;11.318;2024-03-23T12:53:58;5.80;;;1.77;;
75589;SDS011;76096;47.236;11.318;2024-03-23T12:56:24;3.75;;;1.10;;
75589;SDS011;76096;47.236;11.318;2024-03-23T12:58:50;3.30;;;0.90;;
75589;SDS011;76096;47.236;11.318;2024-03-23T13:01:20;2.72;;;1.08;;
75589;SDS011;76096;47.236;11.318;2024-03-23T13:03:46;2.55;;;0.90;;
75589;SDS011;76096;47.236;11.318;2024-03-23T13:06:12;2.50;;;0.93;;
75589;SDS011;76096;47.236;11.318;2024-03-23T13:08:38;4.00;;;1.20;;
75589;SDS011;76096;47.236;11.318;2024-03-23T13:11:05;4.05;;;1.30;;
75589;SDS011;76096;47.236;11.318;2024-03-23T13:13:31;4.40;;;1.50;;
75589;SDS011;76096;47.236;11.318;2024-03-23T13:15:57;2.67;;;0.90;;
75589;SDS011;76096;47.236;11.318;2024-03-23T13:18:22;3.45;;;1.38;;
75589;SDS011;76096;47.236;11.318;2024-03-23T13:20:47;3.00;;;1.00;;
75589;SDS011;76096;47.236;11.318;2024-03-23T13:23:13;3.10;;;1.05;;
75589;SDS011;76096;47.236;11.318;2024-03-23T13:25:38;3.20;;;0.73;;
75589;SDS011;76096;47.236;11.318;2024-03-23T13:28:05;2.17;;;0.60;;
75589;SDS011;76096;47.236;11.318;2024-03-23T13:30:30;1.75;;;0.63;;
75589;SDS011;76096;47.236;11.318;2024-03-23T13:32:56;2.47;;;0.82;;
75589;SDS011;76096;47.236;11.318;2024-03-23T13:35:21;5.00;;;1.90;;
75589;SDS011;76096;47.236;11.318;2024-03-23T13:37:47;2.88;;;1.13;;
75589;SDS011;76096;47.236;11.318;2024-03-23T13:40:13;3.08;;;1.27;;
75589;SDS011;76096;47.236;11.318;2024-03-23T13:42:39;2.30;;;0.80;;
75589;SDS011;76096;47.236;11.318;2024-03-23T13:45:04;2.85;;;0.88;;
75589;SDS011;76096;47.236;11.318;2024-03-23T13:47:30;2.05;;;0.88;;
75589;SDS011;76096;47.236;11.318;2024-03-23T13:49:56;3.03;;;0.82;;
75589;SDS011;76096;47.236;11.318;2024-03-23T13:52:21;1.73;;;0.70;;
75589;SDS011;76096;47.236;11.318;2024-03-23T13:54:50;1.35;;;0.65;;
75589;SDS011;76096;47.236;11.318;2024-03-23T13:57:16;2.70;;;1.00;;
75589;SDS011;76096;47.236;11.318;2024-03-23T13:59:42;2.80;;;0.88;;
75589;SDS011;76096;47.236;11.318;2024-03-23T14:02:07;1.63;;;0.80;;
75589;SDS011;76096;47.236;11.318;2024-03-23T14:04:33;1.85;;;0.70;;
75589;SDS011;76096;47.236;11.318;2024-03-23T14:06:58;1.60;;;0.55;;
75589;SDS011;76096;47.236;11.318;2024-03-23T14:09:24;3.03;;;1.00;;
75589;SDS011;76096;47.236;11.318;2024-03-23T14:11:51;4.38;;;1.00;;
75589;SDS011;76096;47.236;11.318;2024-03-23T14:14:16;4.07;;;1.15;;
75589;SDS011;76096;47.236;11.318;2024-03-23T14:16:44;6.45;;;1.52;;
75589;SDS011;76096;47.236;11.318;2024-03-23T14:19:10;2.45;;;0.93;;
75589;SDS011;76096;47.236;11.318;2024-03-23T14:21:35;4.18;;;1.45;;
75589;SDS011;76096;47.236;11.318;2024-03-23T14:24:01;5.10;;;1.90;;
75589;SDS011;76096;47.236;11.318;2024-03-23T14:26:27;7.05;;;1.80;;
75589;SDS011;76096;47.236;11.318;2024-03-23T14:28:52;7.35;;;1.92;;
75589;SDS011;76096;47.236;11.318;2024-03-23T14:31:18;3.60;;;1.10;;
75589;SDS011;76096;47.236;11.318;2024-03-23T14:33:43;4.30;;;1.60;;
75589;SDS011;76096;47.236;11.318;2024-03-23T14:36:15;4.80;;;1.45;;
75589;SDS011;76096;47.236;11.318;2024-03-23T14:38:42;2.42;;;0.90;;
75589;SDS011;76096;47.236;11.318;2024-03-23T14:41:08;4.38;;;1.27;;
75589;SDS011;76096;47.236;11.318;2024-03-23T14:43:33;3.67;;;0.95;;
75589;SDS011;76096;47.236;11.318;2024-03-23T14:46:08;7.68;;;2.28;;
75589;SDS011;76096;47.236;11.318;2024-03-23T14:48:34;11.65;;;3.00;;
75589;SDS011;76096;47.236;11.318;2024-03-23T14:51:02;3.53;;;1.13;;
75589;SDS011;76096;47.236;11.318;2024-03-23T14:53:35;1.85;;;0.70;;
75589;SDS011;76096;47.236;11.318;2024-03-23T14:56:01;8.15;;;2.28;;
75589;SDS011;76096;47.236;11.318;2024-03-23T14:58:27;7.97;;;2.42;;
75589;SDS011;76096;47.236;11.318;2024-03-23T15:00:59;7.32;;;2.25;;
75589;SDS011;76096;47.236;11.318;2024-03-23T15:03:25;4.00;;;1.05;;
75589;SDS011;76096;47.236;11.318;2024-03-23T15:05:58;2.38;;;0.70;;
75589;SDS011;76096;47.236;11.318;2024-03-23T15:08:25;2.15;;;0.90;;
75589;SDS011;76096;47.236;11.318;2024-03-23T15:10:51;3.35;;;1.10;;
75589;SDS011;76096;47.236;11.318;2024-03-23T15:13:16;3.67;;;0.98;;
75589;SDS011;76096;47.236;11.318;2024-03-23T15:15:42;4.30;;;1.13;;
75589;SDS011;76096;47.236;11.318;2024-03-23T15:18:11;4.10;;;1.05;;
75589;SDS011;76096;47.236;11.318;2024-03-23T15:20:42;4.30;;;1.45;;
75589;SDS011;76096;47.236;11.318;2024-03-23T15:23:17;2.10;;;0.70;;
75589;SDS011;76096;47.236;11.318;2024-03-23T15:25:43;3.60;;;1.23;;
75589;SDS011;76096;47.236;11.318;2024-03-23T15:28:09;3.70;;;1.20;;
75589;SDS011;76096;47.236;11.318;2024-03-23T15:30:34;2.63;;;1.00;;
75589;SDS011;76096;47.236;11.318;2024-03-23T15:33:00;2.20;;;0.75;;